createdAt,value
2023-05-17T00:01:21.392Z,42.75
2023-05-17T00:12:01.796Z,42.97
2023-05-17T00:23:18.381Z,43.22
2023-05-17T00:30:19.504Z,43.44
2023-05-17T00:32:59.355Z,43.42
2023-05-17T00:35:39.236Z,43.38
2023-05-17T00:38:17.256Z,43.40
2023-05-17T00:40:53.844Z,43.55
2023-05-17T00:43:57.260Z,43.88
2023-05-17T00:47:29.778Z,43.83
2023-05-17T00:50:25.783Z,43.97
2023-05-17T01:00:33.441Z,43.87
2023-05-17T01:06:26.222Z,43.61
2023-05-17T01:09:07.159Z,43.43
2023-05-17T01:12:07.065Z,43.51
2023-05-17T01:15:25.098Z,43.50
2023-05-17T01:18:30.969Z,43.60
2023-05-17T01:21:59.992Z,43.77
2023-05-17T01:26:09.418Z,43.93
2023-05-17T01:28:54.260Z,43.98
2023-05-17T01:32:54.607Z,43.99
2023-05-17T01:35:43.138Z,44.19
2023-05-17T01:50:25.271Z,44.32
2023-05-17T02:05:24.317Z,44.30
2023-05-17T02:07:52.629Z,44.31
2023-05-17T02:10:55.344Z,44.45
2023-05-17T02:14:03.835Z,44.76
2023-05-17T02:20:25.621Z,45.50
2023-05-17T02:25:59.094Z,45.79
2023-05-17T02:28:33.247Z,46.19
2023-05-17T02:31:18.508Z,46.57
2023-05-17T02:34:13.193Z,46.74
2023-05-17T03:01:38.560Z,45.62
2023-05-17T03:04:12.330Z,46.07
2023-05-17T03:07:14.944Z,46.35
2023-05-17T03:09:55.392Z,46.64
2023-05-17T03:15:46.678Z,47.10
2023-05-17T03:18:49.984Z,47.17
2023-05-17T03:21:31.861Z,47.30
2023-05-17T03:24:12.117Z,47.28
2023-05-17T03:26:58.520Z,47.20
2023-05-17T03:33:06.247Z,46.79
2023-05-17T03:36:00.126Z,46.71
2023-05-17T03:38:33.297Z,46.65
2023-05-17T03:41:09.221Z,46.87
2023-05-17T03:44:05.799Z,46.93
2023-05-17T03:46:43.205Z,46.84
2023-05-17T03:49:24.665Z,46.63
2023-05-17T03:52:33.099Z,46.47
2023-05-17T03:55:24.228Z,46.56
2023-05-17T03:58:20.854Z,46.68
2023-05-17T04:05:26.718Z,47.34
2023-05-17T04:08:07.452Z,47.57
2023-05-17T04:10:49.655Z,47.77
2023-05-17T04:13:33.527Z,48.00
2023-05-17T04:16:14.169Z,47.95
2023-05-17T04:18:53.955Z,47.97
2023-05-17T04:22:12.234Z,47.83
2023-05-17T04:25:44.053Z,47.59
2023-05-17T04:28:44.238Z,47.51
2023-05-17T04:37:07.417Z,47.47
2023-05-17T04:40:04.056Z,47.60
2023-05-17T04:47:20.944Z,47.55
2023-05-17T04:50:24.029Z,47.55
2023-05-17T04:53:04.386Z,47.47
2023-05-17T04:56:01.342Z,47.55
2023-05-17T04:59:06.943Z,47.37
2023-05-17T05:02:40.927Z,47.28
2023-05-17T05:06:18.740Z,47.03
2023-05-17T05:09:04.572Z,46.53
2023-05-17T05:12:38.491Z,46.49
2023-05-17T05:16:10.265Z,46.54
2023-05-17T05:19:30.596Z,46.75
2023-05-17T05:22:18.408Z,46.77
2023-05-17T05:25:26.591Z,46.80
2023-05-17T05:28:06.902Z,46.87
2023-05-17T05:31:23.387Z,46.73
2023-05-17T05:43:26.172Z,46.13
2023-05-17T05:49:46.999Z,45.78
2023-05-17T06:07:24.405Z,49.56
2023-05-17T06:10:51.505Z,52.46
2023-05-17T06:14:18.963Z,53.30
2023-05-17T06:21:29.602Z,53.73
2023-05-17T06:24:38.194Z,53.38
2023-05-17T06:27:59.326Z,53.64
2023-05-17T06:36:09.468Z,53.93
2023-05-17T06:40:16.588Z,53.24
2023-05-17T06:42:59.889Z,53.16
2023-05-17T06:46:28.998Z,52.75
2023-05-17T06:49:09.257Z,52.04
2023-05-17T06:52:16.661Z,51.40
2023-05-17T06:55:02.993Z,50.42
2023-05-17T06:58:08.497Z,50.44
2023-05-17T07:01:03.206Z,50.23
2023-05-17T07:12:37.530Z,49.87
2023-05-17T07:43:18.962Z,49.97
2023-05-17T08:04:03.016Z,50.53
2023-05-17T08:12:05.873Z,50.10
2023-05-17T08:19:10.340Z,49.18
2023-05-17T08:21:50.629Z,48.90
2023-05-17T10:48:54.115Z,38.67
2023-05-17T11:00:30.948Z,37.15
2023-05-17T11:04:26.689Z,36.65
2023-05-17T11:11:56.311Z,36.36
2023-05-17T11:14:54.297Z,36.37
2023-05-17T11:18:31.948Z,36.10
2023-05-17T11:21:33.013Z,36.32
2023-05-17T11:25:09.610Z,35.86
2023-05-17T11:29:01.158Z,35.41
2023-05-17T11:36:54.021Z,34.56
2023-05-17T11:47:55.202Z,33.76
2023-05-17T11:51:01.358Z,33.86
2023-05-17T11:54:24.854Z,33.89
2023-05-17T11:57:34.142Z,33.94
2023-05-17T12:00:53.734Z,33.77
2023-05-17T12:21:22.396Z,33.05
2023-05-17T12:33:16.501Z,32.69
2023-05-17T12:36:06.553Z,32.64
2023-05-17T12:44:14.642Z,32.42
2023-05-17T12:47:10.708Z,32.17
2023-05-17T12:55:07.582Z,31.36
2023-05-17T12:58:08.591Z,31.05
2023-05-17T13:04:19.398Z,31.08
2023-05-17T13:10:19.318Z,31.29
2023-05-17T13:14:03.943Z,30.99
2023-05-17T13:17:54.421Z,31.07
2023-05-17T13:20:56.407Z,30.64
2023-05-17T13:24:03.983Z,30.14
2023-05-17T13:35:57.126Z,29.63
2023-05-17T13:39:41.425Z,29.56
2023-05-17T13:42:45.937Z,28.39
2023-05-17T13:54:44.414Z,28.57
2023-05-17T13:58:13.627Z,28.80
2023-05-17T14:01:19.959Z,28.68
2023-05-17T14:05:21.051Z,28.21
2023-05-17T14:08:57.481Z,27.78
2023-05-17T14:17:10.046Z,27.14
2023-05-17T14:20:16.744Z,27.42
2023-05-17T14:23:19.194Z,27.53
2023-05-17T14:26:23.245Z,27.56
2023-05-17T14:29:03.751Z,27.57
2023-05-17T14:32:30.440Z,27.67
2023-05-17T14:35:12.564Z,27.49
2023-05-17T14:43:02.510Z,27.09
2023-05-17T14:46:18.730Z,26.62
2023-05-17T14:49:28.270Z,26.25
2023-05-17T14:52:13.622Z,26.05
2023-05-17T14:55:20.342Z,26.56
2023-05-17T14:59:08.564Z,26.70
2023-05-17T15:01:51.208Z,26.76
2023-05-17T15:05:26.171Z,26.46
2023-05-17T15:08:28.059Z,26.31
2023-05-17T15:11:55.851Z,26.27
2023-05-17T15:15:17.754Z,26.65
2023-05-17T15:18:03.271Z,26.66
2023-05-17T15:22:16.799Z,26.53
2023-05-17T15:47:07.260Z,26.97
2023-05-17T15:50:03.703Z,26.83
2023-05-17T15:53:02.461Z,26.83
2023-05-17T15:55:48.283Z,27.12
2023-05-17T15:58:23.419Z,26.89
2023-05-17T16:01:17.829Z,26.84
2023-05-17T16:05:27.873Z,26.86
2023-05-17T16:08:27.348Z,27.07
2023-05-17T16:11:29.311Z,27.08
2023-05-17T16:14:45.042Z,27.52
2023-05-17T16:20:52.441Z,28.73
2023-05-17T16:23:45.259Z,29.28
2023-05-17T16:31:48.459Z,30.38
2023-05-17T16:35:45.533Z,30.95
2023-05-17T16:39:08.722Z,31.85
2023-05-17T16:42:36.677Z,32.08
2023-05-17T17:05:07.066Z,35.54
2023-05-17T17:08:47.793Z,36.26
2023-05-17T17:11:50.595Z,36.68
2023-05-17T17:14:50.770Z,37.00
2023-05-17T17:17:51.602Z,37.16
2023-05-17T17:20:45.844Z,37.43
2023-05-17T17:38:09.517Z,37.35
2023-05-17T17:41:46.365Z,37.31
2023-05-17T17:44:39.984Z,37.10
2023-05-17T17:47:41.992Z,36.90
2023-05-17T17:57:55.927Z,36.71
2023-05-17T18:00:51.910Z,36.73
2023-05-17T18:03:24.329Z,36.71
2023-05-17T18:06:12.717Z,36.83
2023-05-17T18:09:18.396Z,36.82
2023-05-17T18:16:42.379Z,36.69
2023-05-17T18:19:40.977Z,36.99
2023-05-17T18:23:10.141Z,37.11
2023-05-17T18:26:19.311Z,37.28
2023-05-17T18:29:41.640Z,37.45
2023-05-17T18:37:09.493Z,37.54
2023-05-17T18:40:26.457Z,37.77
2023-05-17T18:57:09.109Z,37.91
2023-05-17T19:13:48.232Z,36.82
2023-05-17T19:17:56.591Z,36.17
2023-05-17T19:20:35.382Z,35.82
2023-05-17T19:23:23.834Z,35.31
2023-05-17T19:26:15.993Z,35.23
2023-05-17T19:28:54.607Z,35.04
2023-05-17T19:32:27.059Z,34.96
2023-05-17T19:35:34.245Z,34.95
2023-05-17T19:38:58.079Z,34.90
2023-05-17T19:41:47.634Z,34.78
2023-05-17T19:45:11.671Z,34.76
2023-05-17T19:48:15.669Z,34.67
2023-05-17T19:51:40.738Z,34.66
2023-05-17T19:54:18.033Z,34.51
2023-05-17T20:08:22.665Z,35.24
2023-05-17T20:18:41.585Z,37.52
2023-05-17T20:49:42.634Z,48.45
2023-05-17T21:31:12.208Z,48.88
2023-05-17T21:48:19.811Z,51.19
2023-05-17T21:51:09.179Z,51.78
2023-05-17T21:58:44.139Z,52.61
2023-05-17T22:01:49.763Z,52.85
2023-05-17T22:07:55.312Z,53.02
2023-05-17T23:15:11.867Z,53.80
2023-05-17T23:18:31.105Z,54.26
2023-05-17T23:25:29.376Z,54.83
2023-05-17T23:48:30.428Z,54.97
